Foxcroft, Pennsylvania
Current Conditions -  °F | °C
As of 11:26 AM on Saturday 20 Dec 2014 (Local Time) from KPNE Reporting Station
Overcast Overcast  
Wind Chill: 30°   Ceiling: 3100
Heat Index: 34°   Visibility: 10mi
Dew Point: 19°   Wind: 5mph
Humidity: 54%   Direction: 10°N
Pressure: 30.31"   Gusts: NA
Location:  40.1039°N, 75.1072°W
Report Text: KPNE 201626Z AUTO 01004KT 10SM OVC031 01/M07 A3031 RMK AO2 T00111072 TSNO $
Loading
Personal Weather Stations






























Interactive Weather Map New forecast layout! Learn more

10-Day Weather Forecast

Advertisements
Track Severe Weather on mobile